Time,TemperatureF,DewpointF,PressureIn,WindDirection,WindDirectionDegrees,WindSpeedMPH,WindSpeedGustMPH,Humidity,HourlyPrecipIn,Conditions,Clouds,dailyrainin,SoftwareType,DateUTC
2013-10-02 00:14:00,65.0,61.0,29.84,SSW,200,3.0,6.0,86,0.00,,,0.00,,2013-10-02 04:14:00,
2013-10-02 00:24:00,65.0,60.0,29.85,SW,225,2.0,6.0,84,0.00,,,0.00,,2013-10-02 04:24:00,
2013-10-02 00:54:00,64.0,58.0,29.86,SSW,206,2.0,5.0,82,0.00,,,0.00,,2013-10-02 04:54:00,
2013-10-02 01:23:00,63.0,56.0,29.87,SSW,204,0.0,4.0,78,0.01,,,0.01,,2013-10-02 05:23:00,
2013-10-02 01:53:00,62.0,52.0,29.88,WNW,286,2.0,7.0,70,0.01,,,0.01,,2013-10-02 05:53:00,
2013-10-02 02:22:00,62.0,51.0,29.89,NW,309,2.0,7.0,67,0.01,,,0.01,,2013-10-02 06:22:00,
2013-10-02 02:52:00,61.0,51.0,29.90,WSW,252,1.0,4.0,69,0.00,,,0.01,,2013-10-02 06:52:00,
2013-10-02 03:12:00,60.0,51.0,29.91,WSW,252,1.0,3.0,73,0.00,,,0.01,,2013-10-02 07:12:00,
2013-10-02 03:22:00,59.0,51.0,29.91,WSW,256,0.0,4.0,74,0.00,,,0.01,,2013-10-02 07:22:00,
2013-10-02 03:52:00,59.0,50.0,29.91,WNW,291,2.0,5.0,71,0.00,,,0.01,,2013-10-02 07:52:00,
2013-10-02 04:22:00,59.0,48.0,29.91,NNW,334,4.0,6.0,67,0.00,,,0.01,,2013-10-02 08:22:00,
2013-10-02 04:52:00,59.0,48.0,29.93,NNW,331,0.0,6.0,67,0.00,,,0.01,,2013-10-02 08:52:00,
2013-10-02 05:02:00,59.0,48.0,29.93,NNW,331,0.0,6.0,67,0.00,,,0.01,,2013-10-02 09:02:00,
2013-10-02 05:21:00,58.0,47.0,29.93,NW,307,0.0,6.0,68,0.00,,,0.01,,2013-10-02 09:21:00,
2013-10-02 05:54:00,58.0,47.0,29.95,South,186,0.0,4.0,68,0.00,,,0.01,,2013-10-02 09:54:00,
2013-10-02 06:23:00,56.0,46.0,29.96,NNW,328,1.0,4.0,70,0.00,,,0.01,,2013-10-02 10:23:00,
2013-10-02 06:53:00,56.0,47.0,29.96,SW,228,2.0,3.0,71,0.00,,,0.01,,2013-10-02 10:53:00,
2013-10-02 07:03:00,56.0,47.0,29.96,SW,228,2.0,3.0,71,0.00,,,0.01,,2013-10-02 11:03:00,
2013-10-02 07:22:00,51.0,45.0,29.98,SW,228,2.0,4.0,81,0.00,,,0.01,,2013-10-02 11:22:00,
2013-10-02 07:52:00,51.0,45.0,29.99,SSE,156,1.0,5.0,81,0.00,,,0.01,,2013-10-02 11:52:00,
2013-10-02 08:02:00,51.0,45.0,29.99,SSE,156,1.0,5.0,81,0.00,,,0.01,,2013-10-02 12:02:00,
2013-10-02 08:12:00,51.0,45.0,29.99,SSE,156,1.0,5.0,81,0.00,,,0.01,,2013-10-02 12:12:00,
2013-10-02 08:22:00,50.0,46.0,30.00,SSE,155,3.0,3.0,86,0.00,,,0.01,,2013-10-02 12:22:00,
2013-10-02 08:52:00,50.0,46.0,30.01,SSE,156,2.0,5.0,87,0.00,,,0.01,,2013-10-02 12:52:00,
2013-10-02 09:22:00,52.0,48.0,30.03,SSE,156,3.0,4.0,87,0.00,,,0.01,,2013-10-02 13:22:00,
2013-10-02 09:52:00,55.0,50.0,30.03,SSE,154,1.0,4.0,82,0.00,,,0.01,,2013-10-02 13:52:00,
2013-10-02 10:21:00,60.0,52.0,30.05,SSE,165,3.0,4.0,74,0.00,,,0.01,,2013-10-02 14:21:00,
2013-10-02 10:52:00,63.0,52.0,30.05,South,186,3.0,6.0,67,0.00,,,0.01,,2013-10-02 14:52:00,
2013-10-02 11:22:00,65.0,52.0,30.06,WNW,298,3.0,7.0,62,0.00,,,0.01,,2013-10-02 15:22:00,
2013-10-02 11:54:00,65.0,49.0,30.06,WNW,285,4.0,8.0,57,0.00,,,0.01,,2013-10-02 15:54:00,
2013-10-02 12:23:00,66.0,48.0,30.07,West,273,1.0,8.0,53,0.00,,,0.01,,2013-10-02 16:23:00,
2013-10-02 12:52:00,67.0,48.0,30.07,SE,135,3.0,7.0,50,0.00,,,0.01,,2013-10-02 16:52:00,
2013-10-02 13:23:00,68.0,49.0,30.07,SSE,155,4.0,9.0,50,0.00,,,0.01,,2013-10-02 17:23:00,
2013-10-02 13:42:00,68.0,45.0,30.07,SE,138,0.0,10.0,44,0.00,,,0.01,,2013-10-02 17:42:00,
2013-10-02 13:52:00,68.0,43.0,30.07,SE,135,5.0,10.0,41,0.00,,,0.01,,2013-10-02 17:52:00,
2013-10-02 14:02:00,68.0,43.0,30.07,SE,135,5.0,10.0,41,0.00,,,0.01,,2013-10-02 18:02:00,
2013-10-02 14:12:00,68.0,43.0,30.07,SE,135,5.0,10.0,41,0.00,,,0.01,,2013-10-02 18:12:00,
2013-10-02 14:22:00,68.0,46.0,30.06,SSE,152,1.0,9.0,45,0.00,,,0.01,,2013-10-02 18:22:00,
2013-10-02 14:32:00,68.0,46.0,30.06,SSE,152,1.0,9.0,45,0.00,,,0.01,,2013-10-02 18:32:00,
2013-10-02 14:52:00,68.0,43.0,30.06,East,87,4.0,9.0,41,0.00,,,0.01,,2013-10-02 18:52:00,
2013-10-02 15:22:00,68.0,43.0,30.06,SSE,153,3.0,7.0,41,0.00,,,0.01,,2013-10-02 19:22:00,
2013-10-02 15:52:00,69.0,44.0,30.06,NW,322,4.0,8.0,40,0.00,,,0.01,,2013-10-02 19:52:00,
2013-10-02 16:11:00,68.0,41.0,30.06,NNW,328,3.0,7.0,37,0.00,,,0.01,,2013-10-02 20:11:00,
2013-10-02 16:22:00,68.0,41.0,30.06,WSW,251,2.0,10.0,37,0.00,,,0.01,,2013-10-02 20:22:00,
2013-10-02 16:52:00,68.0,39.0,30.06,West,274,2.0,7.0,35,0.00,,,0.01,,2013-10-02 20:52:00,
2013-10-02 17:02:00,68.0,39.0,30.06,West,274,2.0,7.0,35,0.00,,,0.01,,2013-10-02 21:02:00,
2013-10-02 17:22:00,68.0,41.0,30.06,WNW,292,1.0,7.0,37,0.00,,,0.01,,2013-10-02 21:22:00,
2013-10-02 17:55:00,68.0,43.0,30.06,NE,54,0.0,5.0,40,0.00,,,0.01,,2013-10-02 21:55:00,
2013-10-02 18:13:00,68.0,43.0,30.06,WNW,300,0.0,5.0,40,0.00,,,0.01,,2013-10-02 22:13:00,
2013-10-02 18:24:00,68.0,43.0,30.06,WNW,300,0.0,5.0,40,0.00,,,0.01,,2013-10-02 22:24:00,
2013-10-02 18:44:00,67.0,43.0,30.05,WNW,297,0.0,4.0,42,0.00,,,0.01,,2013-10-02 22:44:00,
2013-10-02 18:54:00,66.0,44.0,30.04,WNW,296,1.0,4.0,45,0.00,,,0.01,,2013-10-02 22:54:00,
2013-10-02 19:12:00,64.0,44.0,30.04,WNW,296,0.0,2.0,48,0.00,,,0.01,,2013-10-02 23:12:00,
2013-10-02 19:22:00,64.0,44.0,30.04,WNW,296,0.0,2.0,48,0.00,,,0.01,,2013-10-02 23:22:00,
2013-10-02 19:52:00,58.0,47.0,30.05,WNW,296,0.0,1.0,67,0.00,,,0.01,,2013-10-02 23:52:00,
2013-10-02 20:02:00,58.0,47.0,30.05,WNW,296,0.0,1.0,67,0.00,,,0.01,,2013-10-03 00:02:00,
2013-10-02 20:22:00,55.0,47.0,30.06,WNW,295,0.0,2.0,74,0.00,,,0.01,,2013-10-03 00:22:00,
2013-10-02 20:42:00,54.0,46.0,30.06,WNW,294,1.0,2.0,73,0.00,,,0.01,,2013-10-03 00:42:00,
2013-10-02 20:52:00,54.0,46.0,30.06,WNW,294,1.0,2.0,73,0.00,,,0.01,,2013-10-03 00:52:00,
2013-10-02 21:11:00,53.0,47.0,30.06,SE,139,0.0,3.0,81,0.00,,,0.01,,2013-10-03 01:11:00,
2013-10-02 21:23:00,52.0,47.0,30.06,WSW,252,0.0,3.0,82,0.00,,,0.01,,2013-10-03 01:23:00,
2013-10-02 21:42:00,52.0,47.0,30.06,West,262,0.0,0.0,83,0.00,,,0.01,,2013-10-03 01:42:00,
2013-10-02 21:52:00,52.0,47.0,30.06,West,271,1.0,3.0,84,0.00,,,0.01,,2013-10-03 01:52:00,
2013-10-02 22:22:00,53.0,47.0,30.06,West,265,0.0,3.0,81,0.00,,,0.01,,2013-10-03 02:22:00,
2013-10-02 23:22:00,50.0,46.0,30.07,WSW,258,2.0,3.0,87,0.00,,,0.01,,2013-10-03 03:22:00,
2013-10-02 23:44:00,50.0,46.0,30.07,West,259,2.0,3.0,87,0.00,,,0.01,,2013-10-03 03:44:00,
2013-10-02 23:54:00,50.0,46.0,30.07,West,276,0.0,3.0,87,0.00,,,0.01,,2013-10-03 03:54:00,